Taiki Maru — JI3464 — position and weather

sailwx.info

Track history (hours):
 
Tides and Currents Weather Stations Pressure Air Temp Water Temp Dewpoint Dewpoint Depression Visibility Wind Speed Wind Dir Waves Ship Positions

Taiki Maru

Last reported at 2014-Sep-29 17:33 UTC. Time now 2014-Oct-02 08:26 UTC.
Position N 35°07' E 139°43'.

Length 93 m; draft 5.2 m.

Type: Cargo ship. MMSI: 431300622.

Date/timePositionNaut miles runAvg speedWind from/ knotsBaromVisibWave heightAir tempDewpointWater temp
2014-Sep-29 17:33N 35°07' E 139°43'1212.0
2014-Sep-29 16:33N 35°19' E 139°43'4 4.4
2014-Sep-29 15:32N 35°24' E 139°44'0 0.0
2014-Sep-29 14:32N 35°24' E 139°44'0 0.0
2014-Sep-29 13:32N 35°24' E 139°44'0 0.0
2014-Sep-29 12:32N 35°24' E 139°44'0 0.0
2014-Sep-29 11:32N 35°24' E 139°44'0 0.0
2014-Sep-29 10:32N 35°24' E 139°44'0 0.0
2014-Sep-29 09:32N 35°24' E 139°44'0 0.0
2014-Sep-29 08:32N 35°24' E 139°44'6 0.3
2014-Sep-28 13:32N 35°29' E 139°40'0 0.0
2014-Sep-28 12:32N 35°29' E 139°40'0 0.0
2014-Sep-28 11:32N 35°29' E 139°40'0 0.0
2014-Sep-28 10:32N 35°29' E 139°40'0 0.0
2014-Sep-28 09:32N 35°29' E 139°40'0 0.0
2014-Sep-28 08:32N 35°29' E 139°40'0 0.0
2014-Sep-28 07:32N 35°29' E 139°40'0 0.0
2014-Sep-28 06:32N 35°29' E 139°40'0 0.0
2014-Sep-28 05:32N 35°29' E 139°40'0 0.0
2014-Sep-28 04:29N 35°29' E 139°40'0 0.0
2014-Sep-28 03:32N 35°29' E 139°40'0 0.0
2014-Sep-28 02:29N 35°29' E 139°40'0 0.0
2014-Sep-28 01:32N 35°29' E 139°40'0 0.0
2014-Sep-28 00:32N 35°29' E 139°40'0 0.0
2014-Sep-27 23:31N 35°29' E 139°40'0 0.0
2014-Sep-27 22:31N 35°29' E 139°40'0 0.0
2014-Sep-27 21:31N 35°29' E 139°40'0 0.0
2014-Sep-27 20:31N 35°29' E 139°40'0 0.0
2014-Sep-27 19:31N 35°29' E 139°40'0 0.0
2014-Sep-27 18:31N 35°29' E 139°40'0 0.0
2014-Sep-27 17:31N 35°29' E 139°40'0 0.0
2014-Sep-27 16:31N 35°29' E 139°40'0 0.0
2014-Sep-27 15:31N 35°29' E 139°40'0 0.0
2014-Sep-27 14:31N 35°29' E 139°40'0 0.0
2014-Sep-27 13:31N 35°29' E 139°40'0 0.0
2014-Sep-27 12:31N 35°29' E 139°40'0 0.0
2014-Sep-27 11:31N 35°29' E 139°40'0 0.0
2014-Sep-27 10:31N 35°29' E 139°40'0 0.0
2014-Sep-27 09:31N 35°29' E 139°40'0 0.0
2014-Sep-27 08:31N 35°29' E 139°40'4 3.7
2014-Sep-27 07:33N 35°26' E 139°42'6 5.6
2014-Sep-27 06:33N 35°20' E 139°43'1210.9
2014-Sep-27 05:29N 35°09' E 139°46'247 4.8
2014-Sep-25 02:06N 34°05' E 134°56'813.6
2014-Sep-25 01:32N 34°12' E 134°58'1212.0
2014-Sep-25 00:33N 34°23' E 135°02'5 4.0
2014-Sep-24 23:24N 34°23' E 135°08'0 0.0
2014-Sep-24 22:30N 34°23' E 135°08'0 0.0
2014-Sep-24 21:12N 34°23' E 135°08'0 0.0
2014-Sep-24 20:18N 34°23' E 135°08'0 0.0
2014-Sep-24 19:24N 34°23' E 135°08'0 0.0
2014-Sep-24 18:30N 34°23' E 135°08'0 0.0
2014-Sep-24 17:24N 34°23' E 135°08'0 0.0
2014-Sep-24 16:24N 34°23' E 135°08'0 0.0
2014-Sep-24 14:30N 34°23' E 135°08'0 0.0
2014-Sep-24 13:33N 34°23' E 135°08'0 0.0
2014-Sep-24 12:24N 34°23' E 135°08'0 0.0
2014-Sep-24 11:06N 34°23' E 135°08'0 0.0
2014-Sep-24 07:31N 34°22' E 135°08'1010.6
2014-Sep-24 06:33N 34°31' E 135°15'1312.4
2014-Sep-24 05:32N 34°40' E 135°26'1 0.7
2014-Sep-24 04:26N 34°40' E 135°27'0 0.0
2014-Sep-24 03:26N 34°40' E 135°27'0 0.0
2014-Sep-24 02:20N 34°40' E 135°27'1 1.5
2014-Sep-24 01:33N 34°39' E 135°26'6 5.1
2014-Sep-24 00:22N 34°37' E 135°19'0 0.0
2014-Sep-23 23:28N 34°37' E 135°19'0 0.0
2014-Sep-23 22:28N 34°37' E 135°19'0 0.0
2014-Sep-23 20:28N 34°37' E 135°19'0 0.0
2014-Sep-23 19:28N 34°37' E 135°19'0 0.0
2014-Sep-23 18:22N 34°37' E 135°19'0 0.0
2014-Sep-23 17:28N 34°37' E 135°19'0 0.0
2014-Sep-23 16:28N 34°37' E 135°19'0 0.0
2014-Sep-23 15:28N 34°37' E 135°19'0 0.0
2014-Sep-23 14:28N 34°37' E 135°19'0 0.0
2014-Sep-23 13:22N 34°37' E 135°19'0 0.1
2014-Sep-23 12:28N 34°37' E 135°19'0 0.1
2014-Sep-23 11:33N 34°37' E 135°19'0 0.1
2014-Sep-23 10:33N 34°37' E 135°19'1110.8
2014-Sep-23 09:33N 34°29' E 135°11'1413.8
2014-Sep-23 08:33N 34°18' E 134°60'1212.1
2014-Sep-23 07:33N 34°07' E 135°07'1 0.1
2014-Sep-22 23:06N 34°07' E 135°08'2 2.9
2014-Sep-22 22:32N 34°08' E 135°06'0 0.0
2014-Sep-22 21:29N 34°08' E 135°06'0 0.0
2014-Sep-22 20:30N 34°08' E 135°06'0 0.0
2014-Sep-22 19:30N 34°08' E 135°06'0 0.1
2014-Sep-22 18:32N 34°08' E 135°06'0 0.0
2014-Sep-22 17:33N 34°08' E 135°06'0 0.0
2014-Sep-22 16:33N 34°08' E 135°06'6 5.9
2014-Sep-22 15:30N 34°03' E 135°02'240 6.5
2014-Sep-21 02:31N 33°51' E 130°13'18 0.6
2014-Sep-19 18:09N 33°41' E 129°55'  
Track history (hours):
 
Tides and Currents Weather Stations Pressure Air Temp Water Temp Dewpoint Dewpoint Depression Visibility Wind Speed Wind Dir Waves Ship Positions

Taiki Maru

Last reported at 2014-Sep-29 17:33 UTC. Time now 2014-Oct-02 08:26 UTC.
Position N 35°07' E 139°43'.

Length 93 m; draft 5.2 m.

Type: Cargo ship. MMSI: 431300622.

Date/timePositionNaut miles runAvg speedWind from/ knotsBaromVisibWave heightAir tempDewpointWater temp
2014-Sep-29 17:33N 35°07' E 139°43'1212.0
2014-Sep-29 16:33N 35°19' E 139°43'4 4.4
2014-Sep-29 15:32N 35°24' E 139°44'0 0.0
2014-Sep-29 14:32N 35°24' E 139°44'0 0.0
2014-Sep-29 13:32N 35°24' E 139°44'0 0.0
2014-Sep-29 12:32N 35°24' E 139°44'0 0.0
2014-Sep-29 11:32N 35°24' E 139°44'0 0.0
2014-Sep-29 10:32N 35°24' E 139°44'0 0.0
2014-Sep-29 09:32N 35°24' E 139°44'0 0.0
2014-Sep-29 08:32N 35°24' E 139°44'6 0.3
2014-Sep-28 13:32N 35°29' E 139°40'0 0.0
2014-Sep-28 12:32N 35°29' E 139°40'0 0.0
2014-Sep-28 11:32N 35°29' E 139°40'0 0.0
2014-Sep-28 10:32N 35°29' E 139°40'0 0.0
2014-Sep-28 09:32N 35°29' E 139°40'0 0.0
2014-Sep-28 08:32N 35°29' E 139°40'0 0.0
2014-Sep-28 07:32N 35°29' E 139°40'0 0.0
2014-Sep-28 06:32N 35°29' E 139°40'0 0.0
2014-Sep-28 05:32N 35°29' E 139°40'0 0.0
2014-Sep-28 04:29N 35°29' E 139°40'0 0.0
2014-Sep-28 03:32N 35°29' E 139°40'0 0.0
2014-Sep-28 02:29N 35°29' E 139°40'0 0.0
2014-Sep-28 01:32N 35°29' E 139°40'0 0.0
2014-Sep-28 00:32N 35°29' E 139°40'0 0.0
2014-Sep-27 23:31N 35°29' E 139°40'0 0.0
2014-Sep-27 22:31N 35°29' E 139°40'0 0.0
2014-Sep-27 21:31N 35°29' E 139°40'0 0.0
2014-Sep-27 20:31N 35°29' E 139°40'0 0.0
2014-Sep-27 19:31N 35°29' E 139°40'0 0.0
2014-Sep-27 18:31N 35°29' E 139°40'0 0.0
2014-Sep-27 17:31N 35°29' E 139°40'0 0.0
2014-Sep-27 16:31N 35°29' E 139°40'0 0.0
2014-Sep-27 15:31N 35°29' E 139°40'0 0.0
2014-Sep-27 14:31N 35°29' E 139°40'0 0.0
2014-Sep-27 13:31N 35°29' E 139°40'0 0.0
2014-Sep-27 12:31N 35°29' E 139°40'0 0.0
2014-Sep-27 11:31N 35°29' E 139°40'0 0.0
2014-Sep-27 10:31N 35°29' E 139°40'0 0.0
2014-Sep-27 09:31N 35°29' E 139°40'0 0.0
2014-Sep-27 08:31N 35°29' E 139°40'4 3.7
2014-Sep-27 07:33N 35°26' E 139°42'6 5.6
2014-Sep-27 06:33N 35°20' E 139°43'1210.9
2014-Sep-27 05:29N 35°09' E 139°46'247 4.8
2014-Sep-25 02:06N 34°05' E 134°56'813.6
2014-Sep-25 01:32N 34°12' E 134°58'1212.0
2014-Sep-25 00:33N 34°23' E 135°02'5 4.0
2014-Sep-24 23:24N 34°23' E 135°08'0 0.0
2014-Sep-24 22:30N 34°23' E 135°08'0 0.0
2014-Sep-24 21:12N 34°23' E 135°08'0 0.0
2014-Sep-24 20:18N 34°23' E 135°08'0 0.0
2014-Sep-24 19:24N 34°23' E 135°08'0 0.0
2014-Sep-24 18:30N 34°23' E 135°08'0 0.0
2014-Sep-24 17:24N 34°23' E 135°08'0 0.0
2014-Sep-24 16:24N 34°23' E 135°08'0 0.0
2014-Sep-24 14:30N 34°23' E 135°08'0 0.0
2014-Sep-24 13:33N 34°23' E 135°08'0 0.0
2014-Sep-24 12:24N 34°23' E 135°08'0 0.0
2014-Sep-24 11:06N 34°23' E 135°08'0 0.0
2014-Sep-24 07:31N 34°22' E 135°08'1010.6
2014-Sep-24 06:33N 34°31' E 135°15'1312.4
2014-Sep-24 05:32N 34°40' E 135°26'1 0.7
2014-Sep-24 04:26N 34°40' E 135°27'0 0.0
2014-Sep-24 03:26N 34°40' E 135°27'0 0.0
2014-Sep-24 02:20N 34°40' E 135°27'1 1.5
2014-Sep-24 01:33N 34°39' E 135°26'6 5.1
2014-Sep-24 00:22N 34°37' E 135°19'0 0.0
2014-Sep-23 23:28N 34°37' E 135°19'0 0.0
2014-Sep-23 22:28N 34°37' E 135°19'0 0.0
2014-Sep-23 20:28N 34°37' E 135°19'0 0.0
2014-Sep-23 19:28N 34°37' E 135°19'0 0.0
2014-Sep-23 18:22N 34°37' E 135°19'0 0.0
2014-Sep-23 17:28N 34°37' E 135°19'0 0.0
2014-Sep-23 16:28N 34°37' E 135°19'0 0.0
2014-Sep-23 15:28N 34°37' E 135°19'0 0.0
2014-Sep-23 14:28N 34°37' E 135°19'0 0.0
2014-Sep-23 13:22N 34°37' E 135°19'0 0.1
2014-Sep-23 12:28N 34°37' E 135°19'0 0.1
2014-Sep-23 11:33N 34°37' E 135°19'0 0.1
2014-Sep-23 10:33N 34°37' E 135°19'1110.8
2014-Sep-23 09:33N 34°29' E 135°11'1413.8
2014-Sep-23 08:33N 34°18' E 134°60'1212.1
2014-Sep-23 07:33N 34°07' E 135°07'1 0.1
2014-Sep-22 23:06N 34°07' E 135°08'2 2.9
2014-Sep-22 22:32N 34°08' E 135°06'0 0.0
2014-Sep-22 21:29N 34°08' E 135°06'0 0.0
2014-Sep-22 20:30N 34°08' E 135°06'0 0.0
2014-Sep-22 19:30N 34°08' E 135°06'0 0.1
2014-Sep-22 18:32N 34°08' E 135°06'0 0.0
2014-Sep-22 17:33N 34°08' E 135°06'0 0.0
2014-Sep-22 16:33N 34°08' E 135°06'6 5.9
2014-Sep-22 15:30N 34°03' E 135°02'240 6.5
2014-Sep-21 02:31N 33°51' E 130°13'18 0.6
2014-Sep-19 18:09N 33°41' E 129°55'  

Dump ship's entire track history